createdAt,value
2018-06-03T00:01:17.917Z,31.73
2018-06-03T00:03:46.419Z,30.72
2018-06-03T00:06:14.867Z,28.03
2018-06-03T00:08:43.332Z,32.23
2018-06-03T00:11:11.796Z,32.20
2018-06-03T00:13:40.291Z,33.23
2018-06-03T00:16:08.719Z,33.38
2018-06-03T00:18:37.152Z,33.13
2018-06-03T00:21:16.855Z,33.03
2018-06-03T00:23:45.311Z,33.90
2018-06-03T00:26:13.781Z,33.70
2018-06-03T00:28:42.197Z,35.60
2018-06-03T00:31:11.746Z,32.90
2018-06-03T00:33:40.175Z,38.73
2018-06-03T00:36:19.712Z,31.93
2018-06-03T00:38:48.181Z,38.67
2018-06-03T00:41:17.894Z,39.45
2018-06-03T00:43:46.327Z,36.17
2018-06-03T00:46:14.746Z,35.63
2018-06-03T00:48:43.167Z,37.30
2018-06-03T00:51:11.609Z,36.00
2018-06-03T00:53:40.035Z,32.78
2018-06-03T00:56:08.549Z,38.30
2018-06-03T00:58:36.960Z,34.27
2018-06-03T01:01:05.389Z,35.17
2018-06-03T01:03:33.806Z,37.98
2018-06-03T01:06:02.278Z,35.30
2018-06-03T01:08:30.707Z,33.75
2018-06-03T01:10:59.134Z,34.40
2018-06-03T01:13:27.584Z,38.67
2018-06-03T01:15:56.023Z,36.05
2018-06-03T01:18:24.871Z,35.52
2018-06-03T01:20:53.299Z,34.58
2018-06-03T01:23:21.722Z,38.58
2018-06-03T01:25:50.155Z,31.75
2018-06-03T01:28:18.593Z,36.85
2018-06-03T01:30:46.999Z,33.50
2018-06-03T01:33:15.469Z,33.78
2018-06-03T01:35:43.916Z,33.35
2018-06-03T01:38:12.030Z,33.80
2018-06-03T01:40:40.451Z,33.83
2018-06-03T01:43:08.883Z,37.45
2018-06-03T01:45:37.322Z,35.88
2018-06-03T01:48:05.762Z,33.37
2018-06-03T01:50:34.208Z,34.80
2018-06-03T01:53:02.610Z,34.67
2018-06-03T01:55:31.022Z,41.18
2018-06-03T01:57:59.884Z,37.35
2018-06-03T02:00:28.306Z,37.05
2018-06-03T02:02:56.717Z,37.40
2018-06-03T02:05:25.129Z,39.18
2018-06-03T02:07:53.579Z,38.83
2018-06-03T02:10:21.994Z,41.28
2018-06-03T02:12:50.399Z,43.23
2018-06-03T02:15:18.783Z,43.23
2018-06-03T02:17:47.174Z,44.98
2018-06-03T02:20:15.563Z,44.95
2018-06-03T02:22:44.022Z,42.93
2018-06-03T02:25:12.403Z,43.80
2018-06-03T02:27:40.810Z,45.48
2018-06-03T02:30:09.268Z,47.00
2018-06-03T02:32:38.140Z,46.13
2018-06-03T02:35:06.547Z,49.30
2018-06-03T02:37:34.957Z,49.23
2018-06-03T02:40:03.399Z,46.67
2018-06-03T02:42:31.860Z,45.03
2018-06-03T02:45:00.308Z,50.30
2018-06-03T02:47:28.800Z,50.67
2018-06-03T02:49:57.170Z,46.53
2018-06-03T02:52:25.568Z,50.05
2018-06-03T02:54:53.983Z,47.90
2018-06-03T02:57:22.369Z,49.33
2018-06-03T02:59:50.783Z,52.43
2018-06-03T03:02:19.203Z,52.75
2018-06-03T03:04:47.607Z,52.48
2018-06-03T03:07:16.051Z,57.23
2018-06-03T03:09:44.471Z,55.75
2018-06-03T03:12:12.935Z,53.58
2018-06-03T03:14:41.351Z,52.93
2018-06-03T03:17:09.751Z,54.42
2018-06-03T03:19:38.148Z,54.85
2018-06-03T03:22:06.955Z,62.90
2018-06-03T03:24:35.394Z,51.35
2018-06-03T03:27:03.821Z,57.70
2018-06-03T03:29:32.230Z,53.10
2018-06-03T03:32:00.634Z,56.95
2018-06-03T03:34:29.077Z,56.18
2018-06-03T03:36:57.490Z,52.78
2018-06-03T03:39:25.900Z,53.50
2018-06-03T03:41:54.319Z,56.63
2018-06-03T03:44:22.711Z,53.13
2018-06-03T03:46:51.136Z,53.83
2018-06-03T03:49:19.526Z,51.92
2018-06-03T03:51:47.944Z,56.73
2018-06-03T03:54:16.350Z,52.88
2018-06-03T03:56:44.774Z,55.40
2018-06-03T03:59:13.198Z,49.48
2018-06-03T04:01:41.614Z,52.83
2018-06-03T04:04:10.022Z,52.35
2018-06-03T04:06:38.436Z,52.98
2018-06-03T04:09:07.067Z,51.10
2018-06-03T04:11:35.511Z,53.23
2018-06-03T04:14:03.923Z,50.90
2018-06-03T04:17:56.779Z,52.23
2018-06-03T04:20:25.175Z,50.58
2018-06-03T04:22:53.571Z,49.33
2018-06-03T04:25:21.963Z,51.48
2018-06-03T04:27:50.369Z,52.88
2018-06-03T04:30:18.767Z,50.73
2018-06-03T04:32:47.171Z,51.02
2018-06-03T04:35:15.589Z,50.45
2018-06-03T04:37:44.379Z,52.75
2018-06-03T04:40:12.804Z,48.33
2018-06-03T04:42:41.251Z,47.25
2018-06-03T04:45:10.150Z,52.65
2018-06-03T04:47:38.558Z,54.65
2018-06-03T04:50:06.961Z,52.05
2018-06-03T04:52:35.382Z,50.45
2018-06-03T04:55:03.831Z,55.60
2018-06-03T04:57:32.230Z,56.00
2018-06-03T05:00:00.647Z,55.80
2018-06-03T05:02:29.050Z,53.73
2018-06-03T05:04:57.530Z,49.73
2018-06-03T05:07:25.931Z,55.52
2018-06-03T05:09:54.335Z,48.80
2018-06-03T05:12:22.758Z,54.83
2018-06-03T05:14:51.197Z,49.55
2018-06-03T05:17:19.616Z,57.78
2018-06-03T05:19:48.051Z,50.10
2018-06-03T05:22:16.458Z,56.73
2018-06-03T05:24:44.870Z,49.45
2018-06-03T05:27:13.287Z,53.58
2018-06-03T05:29:41.695Z,55.73
2018-06-03T05:32:10.111Z,57.88
2018-06-03T05:34:38.520Z,53.45
2018-06-03T05:37:06.921Z,56.00
2018-06-03T05:39:35.331Z,53.78
2018-06-03T05:42:04.219Z,58.10
2018-06-03T05:44:32.640Z,57.67
2018-06-03T05:47:01.043Z,60.52
2018-06-03T05:49:29.443Z,54.00
2018-06-03T05:51:57.883Z,57.03
2018-06-03T05:54:26.318Z,56.18
2018-06-03T05:56:54.735Z,56.58
2018-06-03T05:59:23.156Z,52.33
2018-06-03T06:01:51.565Z,55.67
2018-06-03T06:05:45.119Z,57.62
2018-06-03T06:08:13.512Z,62.45
2018-06-03T06:10:41.902Z,62.98
2018-06-03T06:13:10.799Z,58.60
2018-06-03T06:15:39.219Z,58.15
2018-06-03T06:18:07.631Z,59.67
2018-06-03T06:20:36.074Z,62.38
2018-06-03T06:23:04.476Z,58.05
2018-06-03T06:25:32.855Z,58.15
2018-06-03T06:28:01.252Z,59.55
2018-06-03T06:30:29.677Z,57.90
2018-06-03T06:32:58.070Z,54.40
2018-06-03T06:35:26.483Z,53.85
2018-06-03T06:37:54.949Z,54.42
2018-06-03T06:40:23.598Z,50.70
2018-06-03T06:42:52.003Z,55.40
2018-06-03T06:45:20.504Z,51.50
2018-06-03T06:47:48.935Z,46.65
2018-06-03T06:50:17.392Z,46.50
2018-06-03T06:52:46.122Z,47.93
2018-06-03T06:55:14.514Z,47.15
2018-06-03T06:57:42.910Z,42.70
2018-06-03T07:00:11.765Z,41.73
2018-06-03T07:02:40.182Z,41.77
2018-06-03T07:05:08.618Z,40.12
2018-06-03T07:07:37.023Z,33.48
2018-06-03T07:10:05.655Z,39.38
2018-06-03T07:12:34.155Z,40.78
2018-06-03T07:15:02.573Z,35.65
2018-06-03T07:17:31.002Z,34.35
2018-06-03T07:19:59.423Z,33.70
2018-06-03T07:22:27.850Z,30.40
2018-06-03T07:24:56.341Z,27.32
2018-06-03T07:27:24.740Z,27.35
2018-06-03T07:29:53.136Z,36.10
2018-06-03T07:32:21.568Z,27.35
2018-06-03T07:34:49.983Z,31.10
2018-06-03T07:37:18.403Z,29.05
2018-06-03T07:39:47.087Z,28.52
2018-06-03T07:42:15.480Z,28.62
2018-06-03T07:44:43.931Z,28.98
2018-06-03T07:47:12.355Z,31.48
2018-06-03T07:49:40.776Z,30.32
2018-06-03T07:52:09.194Z,32.45
2018-06-03T07:54:37.731Z,26.50
2018-06-03T07:57:06.134Z,27.17
2018-06-03T07:59:34.519Z,29.12
2018-06-03T08:02:02.975Z,27.60
2018-06-03T08:04:31.386Z,24.40
2018-06-03T08:06:59.806Z,27.35
2018-06-03T08:09:28.203Z,21.30
2018-06-03T08:11:56.604Z,20.23
2018-06-03T08:14:25.007Z,21.87
2018-06-03T08:16:53.457Z,25.52
2018-06-03T08:19:21.905Z,21.33
2018-06-03T08:21:50.308Z,21.15
2018-06-03T08:24:18.734Z,21.48
2018-06-03T08:26:47.183Z,22.42
2018-06-03T08:29:15.619Z,22.77
2018-06-03T08:31:44.071Z,23.10
2018-06-03T08:34:12.478Z,22.35
2018-06-03T08:36:40.870Z,21.95
2018-06-03T08:39:08.974Z,20.50
2018-06-03T08:41:37.355Z,21.10
2018-06-03T08:44:05.946Z,22.00
2018-06-03T08:46:34.349Z,23.02
2018-06-03T08:49:02.804Z,23.05
2018-06-03T08:51:30.921Z,27.15
2018-06-03T08:53:59.316Z,23.70
2018-06-03T08:56:27.719Z,24.57
2018-06-03T08:58:56.519Z,22.87
2018-06-03T09:01:24.955Z,22.35
2018-06-03T09:03:53.375Z,20.80
2018-06-03T09:06:21.807Z,21.17
2018-06-03T09:08:50.338Z,21.40
2018-06-03T09:11:19.155Z,25.52
2018-06-03T09:13:47.605Z,20.17
2018-06-03T09:16:16.839Z,21.00
2018-06-03T09:18:45.343Z,20.37
2018-06-03T09:21:13.795Z,22.98
2018-06-03T09:23:42.232Z,21.82
2018-06-03T09:26:10.751Z,23.12
2018-06-03T09:28:39.175Z,26.80
2018-06-03T09:31:07.611Z,22.30
2018-06-03T09:33:36.484Z,24.47
2018-06-03T09:36:04.883Z,28.20
2018-06-03T09:38:33.590Z,25.32
2018-06-03T09:41:02.030Z,25.05
2018-06-03T09:43:30.444Z,25.40
2018-06-03T09:45:58.879Z,27.17
2018-06-03T09:48:27.281Z,21.52
2018-06-03T09:50:55.793Z,22.52
2018-06-03T09:53:24.226Z,21.37
2018-06-03T09:55:52.673Z,23.62
2018-06-03T09:58:21.079Z,21.87
2018-06-03T10:00:49.509Z,19.70
2018-06-03T10:03:17.911Z,18.82
2018-06-03T10:05:46.312Z,17.32
2018-06-03T10:08:14.739Z,17.52
2018-06-03T10:10:43.575Z,17.90
2018-06-03T10:13:11.986Z,19.30
2018-06-03T10:15:40.403Z,13.88
2018-06-03T10:18:09.122Z,14.75
2018-06-03T10:20:38.000Z,16.15
2018-06-03T10:23:06.428Z,13.95
2018-06-03T10:25:34.947Z,18.48
2018-06-03T10:28:03.376Z,15.78
2018-06-03T10:30:31.777Z,16.23
2018-06-03T10:33:00.193Z,14.65
2018-06-03T10:35:29.170Z,15.13
2018-06-03T10:37:57.576Z,12.20
2018-06-03T10:40:25.980Z,14.03
2018-06-03T10:42:54.419Z,14.87
2018-06-03T10:45:22.877Z,13.20
2018-06-03T10:47:51.314Z,12.28
2018-06-03T10:50:19.719Z,11.65
2018-06-03T10:52:48.136Z,11.68
2018-06-03T10:55:16.558Z,11.80
2018-06-03T10:57:44.951Z,10.32
2018-06-03T11:00:13.358Z,9.18
2018-06-03T11:02:41.776Z,8.35
2018-06-03T11:05:10.199Z,10.28
2018-06-03T11:07:38.606Z,8.90
2018-06-03T11:10:07.024Z,10.00
2018-06-03T11:12:35.479Z,9.28
2018-06-03T11:15:03.918Z,9.58
2018-06-03T11:17:32.390Z,9.95
2018-06-03T11:20:00.810Z,9.60
2018-06-03T11:22:29.215Z,9.23
2018-06-03T11:24:57.648Z,10.88
2018-06-03T11:27:26.268Z,9.25
2018-06-03T11:29:54.666Z,8.30
2018-06-03T11:32:23.060Z,8.18
2018-06-03T11:34:51.471Z,7.25
2018-06-03T11:37:19.888Z,7.40
2018-06-03T11:39:48.739Z,7.40
2018-06-03T11:42:17.151Z,6.35
2018-06-03T11:44:45.568Z,8.05
2018-06-03T11:47:14.039Z,7.85
2018-06-03T11:49:42.431Z,6.75
2018-06-03T11:52:10.840Z,7.50
2018-06-03T11:54:39.274Z,6.72
2018-06-03T11:57:07.675Z,7.10
2018-06-03T11:59:42.356Z,6.75
2018-06-03T12:02:11.499Z,6.92
2018-06-03T12:04:39.899Z,8.13
2018-06-03T12:07:08.303Z,8.33
2018-06-03T12:09:36.735Z,9.88
2018-06-03T12:12:05.697Z,8.95
2018-06-03T12:14:34.115Z,8.73
2018-06-03T12:17:02.571Z,11.95
2018-06-03T12:19:30.980Z,11.78
2018-06-03T12:21:59.432Z,14.35
2018-06-03T12:24:27.812Z,15.58
2018-06-03T12:26:56.239Z,16.25
2018-06-03T12:29:24.639Z,14.93
2018-06-03T12:31:53.102Z,13.83
2018-06-03T12:34:21.604Z,12.58
2018-06-03T12:36:50.402Z,13.15
2018-06-03T12:39:18.815Z,12.07
2018-06-03T12:41:47.289Z,13.03
2018-06-03T12:44:15.686Z,13.03
2018-06-03T12:46:44.125Z,13.43
2018-06-03T12:49:12.255Z,12.50
2018-06-03T12:51:40.670Z,12.25
2018-06-03T12:54:09.112Z,13.48
2018-06-03T12:56:37.612Z,12.88
2018-06-03T12:59:06.051Z,13.03
2018-06-03T13:01:34.478Z,12.28
2018-06-03T13:04:02.892Z,14.20
2018-06-03T13:06:31.383Z,14.30
2018-06-03T13:08:59.787Z,14.80
2018-06-03T13:11:28.219Z,13.08
2018-06-03T13:13:56.719Z,13.05
2018-06-03T13:16:25.173Z,16.55
2018-06-03T13:18:53.594Z,13.15
2018-06-03T13:21:22.083Z,12.37
2018-06-03T13:23:50.534Z,12.58
2018-06-03T13:26:18.963Z,13.65
2018-06-03T13:28:47.374Z,11.50
2018-06-03T13:31:15.791Z,13.30
2018-06-03T13:33:44.201Z,10.03
2018-06-03T13:36:12.674Z,10.93
2018-06-03T13:38:41.102Z,11.25
2018-06-03T13:41:09.535Z,10.93
2018-06-03T13:43:37.958Z,11.55
2018-06-03T13:46:06.431Z,12.15
2018-06-03T13:48:34.853Z,12.28
2018-06-03T13:51:03.271Z,12.00
2018-06-03T13:53:31.674Z,12.80
2018-06-03T13:56:00.394Z,10.13
2018-06-03T13:58:28.862Z,12.40
2018-06-03T14:00:57.310Z,9.68
2018-06-03T14:03:25.734Z,8.48
2018-06-03T14:05:54.143Z,9.55
2018-06-03T14:08:22.571Z,9.93
2018-06-03T14:10:51.041Z,9.70
2018-06-03T14:13:19.463Z,10.80
2018-06-03T14:15:47.630Z,10.30
2018-06-03T14:18:16.742Z,9.80
2018-06-03T14:20:45.235Z,10.68
2018-06-03T14:23:13.652Z,8.25
2018-06-03T14:25:42.074Z,11.83
2018-06-03T14:28:10.507Z,10.35
2018-06-03T14:30:38.914Z,8.05
2018-06-03T14:33:07.369Z,7.28
2018-06-03T14:35:35.827Z,6.25
2018-06-03T14:38:04.446Z,6.37
2018-06-03T14:40:32.854Z,8.63
2018-06-03T14:43:01.503Z,7.00
2018-06-03T14:45:29.936Z,10.13
2018-06-03T14:47:58.688Z,8.38
2018-06-03T14:50:27.153Z,6.80
2018-06-03T14:52:55.564Z,9.40
2018-06-03T14:55:24.016Z,11.97
2018-06-03T14:57:52.434Z,13.50
2018-06-03T15:00:20.799Z,11.97
2018-06-03T15:02:49.210Z,11.00
2018-06-03T15:05:17.631Z,11.22
2018-06-03T15:07:46.048Z,10.30
2018-06-03T15:10:14.526Z,13.10
2018-06-03T15:12:42.932Z,11.12
2018-06-03T15:15:11.398Z,16.27
2018-06-03T15:17:39.859Z,12.37
2018-06-03T15:20:13.215Z,12.47
2018-06-03T15:22:42.276Z,11.18
2018-06-03T15:25:10.704Z,11.25
2018-06-03T15:27:39.190Z,10.32
2018-06-03T15:30:07.606Z,13.60
2018-06-03T15:32:36.041Z,11.78
2018-06-03T15:35:04.452Z,12.25
2018-06-03T15:37:32.867Z,10.60
2018-06-03T15:40:01.288Z,10.60
2018-06-03T15:42:29.701Z,10.38
2018-06-03T15:44:58.126Z,9.53
2018-06-03T15:47:26.958Z,7.22
2018-06-03T15:49:55.379Z,7.83
2018-06-03T15:52:24.333Z,7.25
2018-06-03T15:54:52.742Z,8.68
2018-06-03T15:57:21.148Z,9.83
2018-06-03T15:59:49.582Z,9.43
2018-06-03T16:02:18.032Z,10.80
2018-06-03T16:04:46.672Z,8.23
2018-06-03T16:07:15.363Z,8.08
2018-06-03T16:09:43.779Z,10.10
2018-06-03T16:12:11.890Z,8.40
2018-06-03T16:14:41.204Z,9.35
2018-06-03T16:17:09.626Z,8.70
2018-06-03T16:19:38.048Z,8.23
2018-06-03T16:22:06.476Z,8.53
2018-06-03T16:24:34.899Z,7.60
2018-06-03T16:27:03.330Z,7.72
2018-06-03T16:29:31.768Z,8.70
2018-06-03T16:32:00.444Z,6.55
2018-06-03T16:34:28.855Z,6.60
2018-06-03T16:36:57.266Z,6.67
2018-06-03T16:39:25.688Z,7.47
2018-06-03T16:41:54.090Z,7.92
2018-06-03T16:44:22.547Z,7.78
2018-06-03T16:46:50.962Z,8.45
2018-06-03T16:49:19.371Z,8.08
2018-06-03T16:51:47.800Z,8.05
2018-06-03T16:54:16.231Z,10.63
2018-06-03T16:56:44.711Z,7.95
2018-06-03T16:59:13.379Z,10.50
2018-06-03T17:01:43.382Z,9.30
2018-06-03T17:04:14.257Z,8.43
2018-06-03T17:06:43.043Z,8.58
2018-06-03T17:09:11.455Z,10.40
2018-06-03T17:11:41.121Z,9.53
2018-06-03T17:14:10.227Z,10.90
2018-06-03T17:16:38.719Z,9.63
2018-06-03T17:19:07.172Z,7.65
2018-06-03T17:21:35.899Z,7.95
2018-06-03T17:24:05.502Z,8.38
2018-06-03T17:26:34.199Z,9.58
2018-06-03T17:29:02.627Z,7.60
2018-06-03T17:31:32.101Z,12.50
2018-06-03T17:34:00.591Z,8.03
2018-06-03T17:36:29.023Z,7.60
2018-06-03T17:38:57.472Z,8.93
2018-06-03T17:41:25.880Z,8.73
2018-06-03T17:43:54.314Z,14.38
2018-06-03T17:46:22.730Z,8.78
2018-06-03T17:48:51.171Z,7.85
2018-06-03T17:51:19.592Z,8.30
2018-06-03T17:53:48.022Z,12.88
2018-06-03T17:56:16.437Z,7.62
2018-06-03T17:58:45.707Z,8.80
2018-06-03T18:01:14.155Z,10.43
2018-06-03T18:03:42.594Z,11.22
2018-06-03T18:06:11.024Z,8.25
2018-06-03T18:08:39.448Z,10.15
2018-06-03T18:11:07.948Z,9.58
2018-06-03T18:13:36.523Z,9.23
2018-06-03T18:16:05.029Z,9.28
2018-06-03T18:18:33.448Z,9.23
2018-06-03T18:21:01.875Z,10.80
2018-06-03T18:23:30.286Z,9.95
2018-06-03T18:25:58.706Z,9.00
2018-06-03T18:28:27.135Z,10.40
2018-06-03T18:30:55.579Z,9.20
2018-06-03T18:33:24.006Z,7.92
2018-06-03T18:35:52.444Z,9.70
2018-06-03T18:38:20.881Z,8.58
2018-06-03T18:40:49.288Z,7.55
2018-06-03T18:43:17.757Z,7.22
2018-06-03T18:45:46.179Z,9.98
2018-06-03T18:48:14.599Z,8.78
2018-06-03T18:50:43.023Z,8.63
2018-06-03T18:53:11.474Z,10.82
2018-06-03T18:55:39.884Z,7.55
2018-06-03T18:58:08.308Z,10.70
2018-06-03T19:00:36.725Z,8.60
2018-06-03T19:03:05.440Z,11.73
2018-06-03T19:05:33.852Z,8.38
2018-06-03T19:08:02.271Z,13.53
2018-06-03T19:10:30.723Z,8.53
2018-06-03T19:12:59.164Z,9.70
2018-06-03T19:15:27.571Z,8.80
2018-06-03T19:17:55.990Z,8.53
2018-06-03T19:20:24.463Z,8.00
2018-06-03T19:22:52.985Z,11.65
2018-06-03T19:25:21.496Z,7.50
2018-06-03T19:27:50.201Z,8.10
2018-06-03T19:30:18.611Z,8.63
2018-06-03T19:32:47.207Z,9.15
2018-06-03T19:35:15.650Z,9.90
2018-06-03T19:37:44.058Z,7.95
2018-06-03T19:40:12.519Z,9.45
2018-06-03T19:42:40.942Z,9.50
2018-06-03T19:45:09.373Z,7.78
2018-06-03T19:47:37.779Z,8.08
2018-06-03T19:50:06.210Z,9.95
2018-06-03T19:52:34.654Z,9.40
2018-06-03T19:55:03.097Z,10.38
2018-06-03T19:57:31.511Z,8.83
2018-06-03T20:00:00.028Z,8.98
2018-06-03T20:02:28.436Z,7.90
2018-06-03T20:04:56.894Z,10.43
2018-06-03T20:07:25.422Z,10.20
2018-06-03T20:09:53.860Z,9.73
2018-06-03T20:12:22.905Z,9.68
2018-06-03T20:14:51.351Z,9.85
2018-06-03T20:17:19.759Z,10.32
2018-06-03T20:19:48.167Z,11.73
2018-06-03T20:22:16.645Z,11.20
2018-06-03T20:24:45.038Z,9.90
2018-06-03T20:27:13.566Z,10.50
2018-06-03T20:29:41.990Z,13.10
2018-06-03T20:32:10.415Z,10.75
2018-06-03T20:34:39.810Z,9.68
2018-06-03T20:37:08.656Z,12.73
2018-06-03T20:39:37.089Z,14.68
2018-06-03T20:42:05.539Z,13.10
2018-06-03T20:44:33.942Z,11.30
2018-06-03T20:47:02.909Z,10.72
2018-06-03T20:49:31.381Z,11.53
2018-06-03T20:51:59.867Z,11.40
2018-06-03T20:54:28.489Z,14.90
2018-06-03T20:56:57.014Z,12.78
2018-06-03T20:59:25.416Z,12.47
2018-06-03T21:01:53.535Z,14.05
2018-06-03T21:04:21.943Z,14.13
2018-06-03T21:06:50.406Z,16.00
2018-06-03T21:09:19.407Z,13.32
2018-06-03T21:11:47.867Z,14.93
2018-06-03T21:14:16.307Z,16.60
2018-06-03T21:16:44.490Z,15.38
2018-06-03T21:19:12.916Z,14.58
2018-06-03T21:21:41.347Z,16.12
2018-06-03T21:24:09.774Z,19.42
2018-06-03T21:26:38.555Z,18.15
2018-06-03T21:29:07.262Z,16.05
2018-06-03T21:31:35.695Z,16.25
2018-06-03T21:34:03.798Z,20.88
2018-06-03T21:36:32.207Z,19.45
2018-06-03T21:39:00.909Z,15.78
2018-06-03T21:41:29.375Z,15.93
2018-06-03T21:43:57.887Z,18.17
2018-06-03T21:46:28.058Z,19.62
2018-06-03T21:48:56.524Z,17.80
2018-06-03T21:51:24.988Z,18.32
2018-06-03T21:53:54.119Z,18.67
2018-06-03T21:56:22.599Z,20.00
2018-06-03T21:58:51.023Z,21.02
2018-06-03T22:01:20.196Z,18.37
2018-06-03T22:03:48.627Z,20.65
2018-06-03T22:06:17.242Z,19.80
2018-06-03T22:08:45.662Z,19.65
2018-06-03T22:11:14.103Z,19.73
2018-06-03T22:13:42.800Z,18.27
2018-06-03T22:16:11.367Z,20.43
2018-06-03T22:18:39.791Z,19.48
2018-06-03T22:21:08.222Z,20.37
2018-06-03T22:23:37.076Z,19.48
2018-06-03T22:26:05.500Z,17.70
2018-06-03T22:28:33.924Z,19.50
2018-06-03T22:31:02.375Z,20.12
2018-06-03T22:33:30.782Z,19.35
2018-06-03T22:35:59.200Z,24.47
2018-06-03T22:38:27.651Z,22.52
2018-06-03T22:40:56.051Z,24.47
